Time;durP1;ratioP1;P1;durP2;ratioP2;P2;SDS_P1;SDS_P2;PMS_P1;PMS_P2;Temp;Humidity;BMP_temperature;BMP_pressure;BME280_temperature;BME280_humidity;BME280_pressure;Samples;Min_cycle;Max_cycle;Signal;HPM_P1;HPM_P2
2023/09/02 00:01:17;;;;;;;3.87;2.72;;;;;;;17.81;59.46;100629.73;1688937;84;21090;-73
2023/09/02 00:03:46;;;;;;;6.17;2.60;;;;;;;17.81;59.86;100629.73;1695511;83;21038;-73
2023/09/02 00:06:18;;;;;;;4.20;2.60;;;;;;;17.81;59.92;100624.73;1715135;83;21034;-73
2023/09/02 00:08:48;;;;;;;3.60;2.52;;;;;;;17.79;59.87;100616.66;1709628;84;21078;-73
2023/09/02 00:11:17;;;;;;;3.55;2.55;;;;;;;17.74;59.80;100617.91;1685745;84;21070;-73
2023/09/02 00:13:46;;;;;;;8.38;2.87;;;;;;;17.68;59.98;100625.80;1709652;84;21054;-72
2023/09/02 00:16:16;;;;;;;3.98;2.40;;;;;;;17.64;60.24;100624.02;1709551;83;20987;-72
2023/09/02 00:18:46;;;;;;;5.00;2.80;;;;;;;17.61;60.38;100629.19;1709447;84;21489;-72
2023/09/02 00:21:15;;;;;;;3.55;2.55;;;;;;;17.57;60.35;100633.52;1709526;84;21033;-72
2023/09/02 00:23:45;;;;;;;5.78;2.60;;;;;;;17.52;60.53;100632.81;1709705;84;21451;-73
2023/09/02 00:26:15;;;;;;;4.35;2.70;;;;;;;17.48;60.76;100637.69;1709411;84;21034;-73
2023/09/02 00:28:44;;;;;;;3.67;2.35;;;;;;;17.42;60.90;100640.86;1709742;83;21022;-73
2023/09/02 00:31:13;;;;;;;6.30;2.50;;;;;;;17.36;61.07;100637.11;1709526;84;21077;-71
2023/09/02 00:33:42;;;;;;;3.15;2.15;;;;;;;17.32;61.15;100631.73;1685372;84;21058;-72
2023/09/02 00:36:11;;;;;;;4.00;2.58;;;;;;;17.30;61.28;100636.67;1709599;84;21019;-72
2023/09/02 00:38:41;;;;;;;4.03;2.37;;;;;;;17.29;61.39;100639.14;1709576;84;21042;-70
2023/09/02 00:41:17;;;;;;;3.33;2.60;;;;;;;17.25;61.49;100639.31;1709754;84;21465;-71
2023/09/02 00:43:48;;;;;;;3.35;2.25;;;;;;;17.25;61.56;100640.69;1692586;83;21034;-71
2023/09/02 00:46:17;;;;;;;2.95;2.15;;;;;;;17.25;61.50;100642.08;1709542;84;21493;-70
2023/09/02 00:48:47;;;;;;;2.72;2.17;;;;;;;17.26;61.37;100641.53;1709715;84;21078;-71
2023/09/02 00:51:17;;;;;;;2.40;2.20;;;;;;;17.21;61.40;100647.78;1709584;84;21054;-72
2023/09/02 00:53:46;;;;;;;3.47;2.10;;;;;;;17.16;61.53;100653.18;1709660;84;21039;-72
2023/09/02 00:56:16;;;;;;;2.65;1.90;;;;;;;17.08;61.76;100650.20;1709686;84;21102;-70
2023/09/02 00:58:45;;;;;;;3.27;2.30;;;;;;;17.05;62.08;100649.28;1709644;84;21086;-72
2023/09/02 01:01:15;;;;;;;3.98;2.50;;;;;;;17.02;62.27;100646.14;1709587;84;21042;-74
2023/09/02 01:03:44;;;;;;;3.77;2.27;;;;;;;17.01;62.44;100649.45;1709764;84;21027;-71
2023/09/02 01:06:14;;;;;;;3.87;2.17;;;;;;;16.98;62.63;100649.07;1711729;83;21074;-72
2023/09/02 01:08:43;;;;;;;3.45;2.37;;;;;;;16.92;62.84;100645.31;1718345;83;21050;-73
2023/09/02 01:11:12;;;;;;;5.55;2.40;;;;;;;16.89;63.13;100649.91;1718718;83;21067;-73
2023/09/02 01:13:42;;;;;;;3.12;2.47;;;;;;;16.88;63.41;100645.44;1699994;83;21075;-73
2023/09/02 01:16:10;;;;;;;2.85;2.30;;;;;;;16.86;63.57;100648.14;1718427;83;21015;-71
2023/09/02 01:18:39;;;;;;;3.17;2.37;;;;;;;16.85;63.69;100645.06;1718447;83;21513;-71
2023/09/02 01:21:39;;;;;;;3.37;2.40;;;;;;;16.84;63.70;100649.76;1718671;82;21063;-72
2023/09/02 01:24:33;;;;;;;4.90;2.20;;;;;;;16.84;63.64;100646.98;1718786;82;21055;-72
2023/09/02 01:27:28;;;;;;;3.67;2.40;;;;;;;16.87;63.64;100653.98;1718649;83;21007;-72
2023/09/02 01:30:06;;;;;;;2.90;2.30;;;;;;;16.85;63.66;100650.59;1718192;83;21031;-72
2023/09/02 01:32:42;;;;;;;4.70;2.30;;;;;;;16.80;63.73;100654.91;1718675;83;20984;-72
2023/09/02 01:35:16;;;;;;;3.83;2.35;;;;;;;16.73;63.86;100654.69;1718718;83;21051;-72
2023/09/02 01:37:48;;;;;;;3.20;2.30;;;;;;;16.70;64.08;100653.23;1718546;83;21486;-72
2023/09/02 01:40:24;;;;;;;4.87;2.30;;;;;;;16.68;64.05;100655.92;1723957;83;21059;-71
2023/09/02 01:43:00;;;;;;;3.02;2.40;;;;;;;16.64;64.01;100658.27;1718716;83;21003;-72
2023/09/02 01:45:36;;;;;;;5.12;2.40;;;;;;;16.61;64.15;100653.74;1723363;82;21023;-72
2023/09/02 01:48:06;;;;;;;3.30;2.30;;;;;;;16.59;64.28;100649.83;1718465;82;21455;-72
2023/09/02 01:50:36;;;;;;;3.62;2.40;;;;;;;16.58;64.49;100655.05;1718664;83;21094;-72
2023/09/02 01:53:05;;;;;;;2.85;2.42;;;;;;;16.56;64.72;100653.05;1718446;83;21043;-72
2023/09/02 01:55:35;;;;;;;3.62;2.80;;;;;;;16.52;64.96;100651.83;1718485;83;21439;-73
2023/09/02 01:58:05;;;;;;;5.17;3.02;;;;;;;16.50;65.17;100658.13;1718630;83;21007;-70
2023/09/02 02:00:34;;;;;;;5.10;2.90;;;;;;;16.48;65.35;100662.50;1718728;82;21074;-72
2023/09/02 02:03:03;;;;;;;5.17;2.92;;;;;;;16.45;65.57;100656.05;1718611;83;21055;-72
2023/09/02 02:05:42;;;;;;;3.22;2.83;;;;;;;16.44;65.87;100662.66;1718594;83;21090;-71
2023/09/02 02:08:12;;;;;;;;;;;;;;;16.44;65.98;100661.81;1690469;83;21340;-71
2023/09/02 02:10:42;;;;;;;5.12;3.52;;;;;;;16.43;66.12;100658.20;1684501;84;20165;-71
2023/09/02 02:13:11;;;;;;;5.03;3.40;;;;;;;16.42;66.24;100659.81;1684507;84;21039;-72
2023/09/02 02:15:40;;;;;;;5.15;3.27;;;;;;;16.39;66.35;100658.35;1684398;84;21102;-72
2023/09/02 02:18:10;;;;;;;5.65;3.20;;;;;;;16.37;66.48;100656.89;1684489;84;21130;-73
2023/09/02 02:21:02;;;;;;;4.42;2.65;;;;;;;16.36;66.60;100667.64;1684466;84;21087;-73
2023/09/02 02:23:31;;;;;;;5.15;3.00;;;;;;;16.32;66.74;100671.94;1684431;84;21179;-72
2023/09/02 02:26:02;;;;;;;3.40;2.75;;;;;;;16.31;66.87;100671.09;1684396;84;21493;-72
2023/09/02 02:28:31;;;;;;;5.60;3.05;;;;;;;16.30;66.94;100673.55;1684463;84;21012;-72
2023/09/02 02:30:59;;;;;;;5.87;3.90;;;;;;;16.29;67.08;100674.63;1684466;84;21032;-71
2023/09/02 02:33:28;;;;;;;5.15;3.70;;;;;;;16.25;67.29;100678.05;1684398;85;21124;-73
2023/09/02 02:35:58;;;;;;;6.33;3.98;;;;;;;16.23;67.59;100676.05;1668527;85;21370;-73
2023/09/02 02:38:27;;;;;;;6.78;3.98;;;;;;;16.22;67.91;100674.36;1691673;84;21079;-74
2023/09/02 02:40:55;;;;;;;7.42;4.35;;;;;;;16.22;68.11;100679.34;1684323;85;21513;-71
2023/09/02 02:43:26;;;;;;;5.97;4.17;;;;;;;16.22;68.34;100671.59;1684405;84;21471;-73
2023/09/02 02:46:18;;;;;;;7.22;4.45;;;;;;;16.23;68.43;100679.66;1684261;85;21039;-71
2023/09/02 02:48:46;;;;;;;8.63;4.10;;;;;;;16.24;68.51;100676.36;1708195;84;21080;-73
2023/09/02 02:51:18;;;;;;;9.15;4.35;;;;;;;16.24;68.60;100674.44;1708354;84;21072;-70
2023/09/02 02:53:48;;;;;;;6.28;4.10;;;;;;;16.21;68.81;100682.34;1708778;84;21273;-71
2023/09/02 02:56:17;;;;;;;8.05;4.47;;;;;;;16.18;69.03;100692.78;1705651;83;21013;-71
2023/09/02 02:58:46;;;;;;;8.45;4.40;;;;;;;16.15;69.20;100695.16;1708213;84;21032;-71
2023/09/02 03:01:16;;;;;;;9.35;4.05;;;;;;;16.10;69.32;100700.52;1708156;84;21065;-72
2023/09/02 03:03:51;;;;;;;6.40;3.85;;;;;;;16.08;69.50;100697.98;1708203;84;21015;-72
2023/09/02 03:06:21;;;;;;;5.42;4.15;;;;;;;16.05;69.62;100699.82;1708165;84;21080;-72
2023/09/02 03:08:50;;;;;;;7.33;4.70;;;;;;;15.98;69.92;100694.88;1707959;84;21021;-72
2023/09/02 03:11:19;;;;;;;8.98;5.08;;;;;;;15.99;70.06;100692.44;1707978;84;21068;-72
2023/09/02 03:13:50;;;;;;;8.33;5.60;;;;;;;16.01;70.08;100699.12;1708173;84;21025;-73
2023/09/02 03:16:20;;;;;;;8.20;5.10;;;;;;;16.00;70.21;100698.27;1706675;84;21030;-72
2023/09/02 03:18:49;;;;;;;8.30;5.20;;;;;;;16.02;70.22;100699.42;1708143;84;21041;-71
2023/09/02 03:21:20;;;;;;;10.28;5.60;;;;;;;16.04;70.22;100700.05;1708163;84;21068;-74
2023/09/02 03:23:49;;;;;;;8.20;5.03;;;;;;;16.05;70.21;100697.05;1707976;84;21505;-72
2023/09/02 03:26:19;;;;;;;9.35;5.33;;;;;;;16.07;70.15;100690.77;1682285;84;21469;-72
2023/09/02 03:28:51;;;;;;;9.83;5.42;;;;;;;16.07;70.12;100697.67;1707939;83;21037;-71
2023/09/02 03:31:20;;;;;;;7.58;5.15;;;;;;;16.07;70.23;100696.83;1707954;84;21519;-71
2023/09/02 03:33:49;;;;;;;8.53;5.45;;;;;;;16.04;70.33;100698.66;1707960;83;21036;-74
2023/09/02 03:36:22;;;;;;;9.85;5.83;;;;;;;16.01;70.50;100694.97;1708110;84;21033;-73
2023/09/02 03:38:52;;;;;;;8.08;5.90;;;;;;;15.98;70.55;100699.03;1707926;83;21041;-71
2023/09/02 03:41:23;;;;;;;10.75;5.85;;;;;;;15.93;70.64;100700.25;1708203;84;21056;-71
2023/09/02 03:43:52;;;;;;;9.75;5.80;;;;;;;15.91;70.79;100701.01;1708292;84;21065;-72
2023/09/02 03:46:22;;;;;;;12.03;6.67;;;;;;;15.91;70.95;100703.77;1708160;83;21033;-72
2023/09/02 03:48:53;;;;;;;12.05;7.55;;;;;;;15.93;70.87;100704.39;1710944;83;21481;-70
2023/09/02 03:51:22;;;;;;;14.78;7.55;;;;;;;16.00;70.62;100708.48;1710923;84;21060;-71
2023/09/02 03:53:54;;;;;;;16.00;7.42;;;;;;;16.04;70.35;100713.33;1710006;83;21119;-69
2023/09/02 03:56:24;;;;;;;13.90;7.28;;;;;;;16.05;70.18;100716.41;1711406;84;21100;-72
2023/09/02 03:58:54;;;;;;;16.75;7.60;;;;;;;16.06;70.04;100723.62;1711134;84;21099;-72
2023/09/02 04:01:24;;;;;;;14.55;7.80;;;;;;;16.08;69.99;100717.88;1711112;84;21057;-72
2023/09/02 04:03:54;;;;;;;17.50;7.90;;;;;;;16.13;69.90;100717.50;1711434;84;21410;-72
2023/09/02 04:06:23;;;;;;;13.68;7.78;;;;;;;16.16;69.85;100721.20;1711148;84;21040;-72
2023/09/02 04:08:52;;;;;;;19.90;9.78;;;;;;;16.20;69.74;100719.36;1711171;84;21061;-71
2023/09/02 04:11:23;;;;;;;21.05;10.03;;;;;;;16.24;69.65;100717.83;1710918;83;21068;-72
2023/09/02 04:13:52;;;;;;;19.80;10.08;;;;;;;16.28;69.51;100724.09;1711002;84;21849;-72
2023/09/02 04:16:23;;;;;;;21.12;9.98;;;;;;;16.31;69.33;100722.26;1711174;84;21029;-72
2023/09/02 04:18:52;;;;;;;20.15;10.40;;;;;;;16.36;69.25;100732.63;1711004;84;21032;-71
2023/09/02 04:21:21;;;;;;;22.13;10.32;;;;;;;16.42;69.19;100724.81;1711077;84;21084;-71
2023/09/02 04:23:50;;;;;;;21.85;10.28;;;;;;;16.45;69.11;100738.19;1710908;83;21465;-71
2023/09/02 04:26:21;;;;;;;22.22;10.95;;;;;;;16.48;68.99;100737.19;1711253;84;20989;-72
2023/09/02 04:28:50;;;;;;;22.42;11.03;;;;;;;16.54;68.85;100737.35;1711238;84;21073;-73
2023/09/02 04:31:22;;;;;;;24.07;10.72;;;;;;;16.61;68.65;100738.97;1687718;84;21165;-72
2023/09/02 04:33:53;;;;;;;27.17;11.83;;;;;;;16.67;68.45;100742.23;1711198;84;21451;-72
2023/09/02 04:36:22;;;;;;;24.87;12.00;;;;;;;16.70;68.33;100743.70;1687249;84;21100;-71
2023/09/02 04:38:51;;;;;;;26.57;12.30;;;;;;;16.74;68.25;100744.93;1674668;85;21012;-72
2023/09/02 04:41:21;;;;;;;23.90;11.45;;;;;;;16.80;67.96;100744.86;1646160;87;21087;-71
2023/09/02 04:43:52;;;;;;;18.92;10.63;;;;;;;16.82;67.79;100740.47;1646120;87;21091;-73
2023/09/02 04:46:22;;;;;;;20.68;10.23;;;;;;;16.86;67.57;100740.86;1674781;86;21467;-71
2023/09/02 04:48:54;;;;;;;21.85;11.12;;;;;;;16.89;67.43;100744.55;1674632;86;21071;-72
2023/09/02 04:51:25;;;;;;;18.77;9.43;;;;;;;16.93;67.34;100745.81;1674967;86;21067;-73
2023/09/02 04:53:54;;;;;;;16.65;9.53;;;;;;;16.97;67.29;100752.58;1674703;85;21088;-74
2023/09/02 04:56:23;;;;;;;22.73;10.23;;;;;;;17.04;67.23;100755.57;1674662;86;21044;-70
2023/09/02 04:58:52;;;;;;;16.70;8.93;;;;;;;17.09;67.13;100757.64;1674876;86;21024;-72
2023/09/02 05:01:24;;;;;;;20.12;9.85;;;;;;;17.16;67.04;100754.25;1674643;86;21452;-72
2023/09/02 05:03:58;;;;;;;17.87;9.18;;;;;;;17.20;66.95;100755.48;1674954;85;21004;-73
2023/09/02 05:06:28;;;;;;;15.50;8.73;;;;;;;17.22;66.89;100756.09;1674955;86;21068;-72
2023/09/02 05:08:59;;;;;;;15.78;8.23;;;;;;;17.27;66.85;100763.16;1674962;86;21067;-72
2023/09/02 05:11:30;;;;;;;17.80;8.90;;;;;;;17.31;66.68;100760.23;1674808;83;21012;-73
2023/09/02 05:14:00;;;;;;;18.65;8.53;;;;;;;17.37;66.57;100757.07;1675004;86;21135;-72
2023/09/02 05:16:30;;;;;;;17.15;8.98;;;;;;;17.41;66.41;100757.75;1674886;86;21060;-72
2023/09/02 05:19:00;;;;;;;17.48;9.58;;;;;;;17.46;66.15;100758.97;1674828;86;21070;-73
2023/09/02 05:21:32;;;;;;;19.23;9.90;;;;;;;17.51;65.99;100757.73;1674851;86;21012;-73
2023/09/02 05:24:01;;;;;;;19.23;10.00;;;;;;;17.56;65.79;100757.91;1674847;86;21039;-72
2023/09/02 05:26:31;;;;;;;16.05;9.65;;;;;;;17.62;65.65;100755.58;1674576;86;21689;-72
2023/09/02 05:29:00;;;;;;;18.23;11.22;;;;;;;17.68;65.30;100761.05;1674870;86;21123;-71
2023/09/02 05:31:31;;;;;;;16.15;10.78;;;;;;;17.73;65.05;100755.65;1674811;85;21024;-74
2023/09/02 05:34:00;;;;;;;17.90;10.50;;;;;;;17.81;64.37;100755.00;1674113;85;21110;-75
2023/09/02 05:36:29;;;;;;;19.05;10.30;;;;;;;17.86;64.20;100753.75;1674847;86;21019;-74
2023/09/02 05:38:59;;;;;;;14.58;9.48;;;;;;;17.95;63.92;100755.95;1674786;85;21086;-71
2023/09/02 05:41:30;;;;;;;20.12;10.72;;;;;;;18.03;63.60;100745.90;1674770;86;21055;-73
2023/09/02 05:43:59;;;;;;;21.17;11.15;;;;;;;18.13;63.26;100745.85;1674821;86;21063;-71
2023/09/02 05:46:28;;;;;;;19.95;9.90;;;;;;;18.22;62.93;100748.06;1674634;86;21480;-72
2023/09/02 05:48:57;;;;;;;17.92;9.63;;;;;;;18.32;62.76;100746.08;1675075;84;21091;-72
2023/09/02 05:51:29;;;;;;;16.05;8.30;;;;;;;18.42;62.39;100748.26;1675231;86;21080;-72
2023/09/02 05:54:00;;;;;;;18.30;9.58;;;;;;;18.50;61.99;100748.74;1675285;86;21170;-73
2023/09/02 05:56:31;;;;;;;13.00;8.45;;;;;;;18.58;61.57;100748.38;1675088;86;21468;-74
2023/09/02 05:59:02;;;;;;;13.95;8.18;;;;;;;18.66;61.03;100739.72;1675549;86;21060;-72
2023/09/02 06:01:31;;;;;;;14.45;7.83;;;;;;;18.74;60.39;100743.20;1675358;86;21039;-73
2023/09/02 06:04:00;;;;;;;14.28;7.80;;;;;;;18.82;60.17;100747.00;1654541;86;21142;-72
2023/09/02 06:06:30;;;;;;;10.85;6.37;;;;;;;18.90;59.79;100746.11;1654272;86;21079;-73
2023/09/02 06:09:01;;;;;;;11.80;5.67;;;;;;;18.97;59.14;100749.59;1675274;86;21471;-73
2023/09/02 06:11:33;;;;;;;12.13;5.65;;;;;;;19.06;58.38;100747.83;1675331;86;21067;-74
2023/09/02 06:14:02;;;;;;;10.75;5.78;;;;;;;19.14;57.80;100755.23;1675323;86;21143;-74
2023/09/02 06:16:30;;;;;;;10.00;4.97;;;;;;;19.25;57.46;100765.47;1675561;86;21381;-73
2023/09/02 06:19:00;;;;;;;7.92;3.50;;;;;;;19.34;56.59;100757.59;1675315;86;21051;-72
2023/09/02 06:21:29;;;;;;;3.83;2.80;;;;;;;19.43;54.82;100755.27;1675404;86;21198;-72
2023/09/02 06:23:58;;;;;;;6.47;3.30;;;;;;;19.53;53.57;100760.54;1675734;86;21185;-72
2023/09/02 06:26:27;;;;;;;7.58;3.33;;;;;;;19.63;52.76;100755.72;1675877;86;21487;-73
2023/09/02 06:28:58;;;;;;;6.75;3.37;;;;;;;19.72;51.95;100754.77;1675617;86;21040;-73
2023/09/02 06:31:28;;;;;;;6.10;3.47;;;;;;;19.80;51.49;100755.21;1675163;86;21032;-73
2023/09/02 06:33:57;;;;;;;6.03;3.42;;;;;;;19.88;51.71;100760.37;1675299;86;21109;-73
2023/09/02 06:36:26;;;;;;;5.12;3.00;;;;;;;19.95;51.57;100761.05;1675337;86;21059;-73
2023/09/02 06:38:56;;;;;;;5.87;2.85;;;;;;;20.02;51.34;100759.50;1675372;86;21035;-74
2023/09/02 06:41:25;;;;;;;5.80;2.50;;;;;;;20.10;50.56;100765.20;1699529;84;21079;-75
2023/09/02 06:43:54;;;;;;;4.70;2.37;;;;;;;20.16;49.78;100766.45;1675221;86;21044;-73
2023/09/02 06:46:24;;;;;;;4.65;2.87;;;;;;;20.22;48.83;100766.84;1675201;86;21147;-73
2023/09/02 06:48:53;;;;;;;4.15;2.47;;;;;;;20.29;48.32;100767.22;1674906;86;21055;-74
2023/09/02 06:51:23;;;;;;;3.05;2.00;;;;;;;20.32;48.08;100768.95;1674855;86;21044;-74
2023/09/02 06:53:53;;;;;;;2.80;1.85;;;;;;;20.36;46.83;100777.63;1674708;85;21468;-73
2023/09/02 06:56:23;;;;;;;5.75;3.70;;;;;;;20.39;46.06;100775.22;1674666;86;21499;-75
2023/09/02 06:58:52;;;;;;;5.05;3.00;;;;;;;20.40;46.19;100774.12;1674716;85;21056;-72
2023/09/02 07:01:22;;;;;;;3.77;2.20;;;;;;;20.44;45.96;100771.12;1674714;86;21488;-73
2023/09/02 07:03:53;;;;;;;7.30;3.77;;;;;;;20.49;45.58;100768.42;1674699;86;21107;-72
2023/09/02 07:06:23;;;;;;;3.27;2.42;;;;;;;20.65;45.26;100770.05;1674794;86;21060;-74
2023/09/02 07:08:52;;;;;;;4.67;2.80;;;;;;;20.92;44.83;100779.95;1674725;86;21052;-73
2023/09/02 07:11:21;;;;;;;4.62;3.05;;;;;;;21.31;44.13;100769.08;1674793;86;21036;-74
2023/09/02 07:13:51;;;;;;;5.85;3.27;;;;;;;21.71;43.33;100774.32;1674650;86;21107;-73
2023/09/02 07:16:20;;;;;;;5.28;3.30;;;;;;;22.06;42.76;100769.69;1674699;86;21016;-72
2023/09/02 07:18:50;;;;;;;5.78;3.00;;;;;;;22.25;42.17;100778.53;1674710;85;21582;-73
2023/09/02 07:21:23;;;;;;;2.85;2.20;;;;;;;22.31;41.68;100780.27;1674980;86;21047;-72
2023/09/02 07:23:52;;;;;;;4.35;3.12;;;;;;;22.35;42.19;100776.38;1674969;86;21063;-74
2023/09/02 07:26:28;;;;;;;2.75;2.10;;;;;;;22.37;41.94;100776.41;1674796;85;21020;-74
2023/09/02 07:28:57;;;;;;;3.87;2.10;;;;;;;22.34;41.91;100776.94;1652583;86;21055;-76
2023/09/02 07:31:28;;;;;;;3.52;2.17;;;;;;;22.30;41.94;100775.78;1674671;86;21040;-74
2023/09/02 07:33:57;;;;;;;3.12;1.95;;;;;;;22.23;42.12;100770.14;1674726;86;21467;-74
2023/09/02 07:36:26;;;;;;;3.50;2.60;;;;;;;22.20;42.42;100768.72;1674884;86;21044;-72
2023/09/02 07:38:55;;;;;;;4.30;2.58;;;;;;;22.23;41.91;100770.14;1674719;86;21043;-73
2023/09/02 07:41:28;;;;;;;4.95;2.98;;;;;;;22.21;42.22;100771.80;1674946;85;21048;-77
2023/09/02 07:43:58;;;;;;;4.05;2.47;;;;;;;22.31;42.26;100773.28;1674832;86;21055;-74
2023/09/02 07:46:28;;;;;;;7.90;2.20;;;;;;;22.64;41.92;100774.94;1674885;86;21055;-73
2023/09/02 07:48:58;;;;;;;4.10;2.50;;;;;;;23.05;41.12;100773.30;1674724;85;21064;-74
2023/09/02 07:51:27;;;;;;;4.55;3.20;;;;;;;23.50;40.26;100768.20;1673986;85;21083;-71
2023/09/02 07:53:57;;;;;;;5.05;3.45;;;;;;;23.98;39.18;100773.39;1663593;84;21083;-68
2023/09/02 07:56:28;;;;;;;4.00;2.83;;;;;;;24.41;38.41;100774.04;1645783;86;21101;-70
2023/09/02 07:59:01;;;;;;;5.47;2.80;;;;;;;24.82;37.65;100765.61;1654163;87;21498;-70
2023/09/02 08:01:31;;;;;;;4.40;2.60;;;;;;;25.23;36.73;100771.97;1655502;86;21131;-71
2023/09/02 08:04:01;;;;;;;4.50;2.60;;;;;;;25.54;35.98;100779.16;1662063;86;21075;-70
2023/09/02 08:06:32;;;;;;;6.45;3.40;;;;;;;25.79;35.38;100769.79;1659128;86;21067;-71
2023/09/02 08:09:02;;;;;;;6.30;3.15;;;;;;;26.01;35.25;100764.31;1659159;86;21118;-68
2023/09/02 08:11:31;;;;;;;5.78;3.20;;;;;;;26.29;34.70;100762.72;1656384;86;21038;-70
2023/09/02 08:14:00;;;;;;;4.60;2.85;;;;;;;26.59;33.83;100775.13;1618522;86;21539;-71
2023/09/02 08:16:29;;;;;;;6.17;2.90;;;;;;;27.17;32.64;100765.30;1659095;86;21519;-69
2023/09/02 08:18:59;;;;;;;5.92;3.00;;;;;;;27.17;32.64;100765.30;1659261;86;21050;-72
2023/09/02 08:21:28;;;;;;;5.42;3.00;;;;;;;27.42;32.30;100766.41;1661906;86;21109;-69
2023/09/02 08:23:57;;;;;;;9.23;3.72;;;;;;;27.61;32.03;100769.86;1662231;86;21571;-71
2023/09/02 08:26:26;;;;;;;5.92;3.02;;;;;;;27.71;31.93;100773.37;1662001;86;21120;-70
2023/09/02 08:28:54;;;;;;;7.65;2.83;;;;;;;27.83;31.86;100771.52;1639296;86;21071;-72
2023/09/02 08:31:24;;;;;;;7.05;2.50;;;;;;;27.98;31.24;100769.07;1662066;86;21154;-72
2023/09/02 08:33:53;;;;;;;4.08;2.65;;;;;;;28.10;30.84;100768.87;1662982;86;21117;-70
2023/09/02 08:36:22;;;;;;;5.25;2.80;;;;;;;28.19;30.23;100769.02;1662872;86;21472;-72
2023/09/02 08:38:53;;;;;;;4.75;2.70;;;;;;;28.16;30.80;100772.45;1662852;86;21059;-70
2023/09/02 08:41:28;;;;;;;8.15;3.00;;;;;;;28.32;30.68;100772.48;1662721;86;21488;-70
2023/09/02 08:44:02;;;;;;;3.80;2.43;;;;;;;28.49;29.93;100775.31;1662937;86;21043;-69
2023/09/02 08:46:34;;;;;;;4.20;2.45;;;;;;;28.55;29.92;100773.50;1662693;86;21592;-71
2023/09/02 08:49:04;;;;;;;2.65;2.10;;;;;;;28.59;29.58;100770.91;1662476;85;21058;-68
2023/09/02 08:51:35;;;;;;;3.80;2.35;;;;;;;28.62;29.50;100768.91;1662096;86;21083;-71
2023/09/02 08:54:04;;;;;;;3.02;2.10;;;;;;;28.67;29.29;100771.06;1662192;86;21148;-71
2023/09/02 08:56:33;;;;;;;5.45;2.30;;;;;;;28.62;29.20;100766.92;1639281;86;21035;-70
2023/09/02 08:59:02;;;;;;;3.62;2.83;;;;;;;28.44;29.52;100769.19;1662091;86;21126;-72
2023/09/02 09:01:32;;;;;;;3.72;2.33;;;;;;;28.28;29.94;100767.20;1650718;86;21088;-70
2023/09/02 09:04:01;;;;;;;6.50;3.37;;;;;;;28.15;30.25;100772.75;1634488;86;21570;-70
2023/09/02 09:06:30;;;;;;;5.35;3.05;;;;;;;28.06;30.37;100766.40;1603351;89;21230;-72
2023/09/02 09:09:01;;;;;;;5.87;2.90;;;;;;;28.01;30.34;100772.11;1628703;88;21187;-71
2023/09/02 09:11:35;;;;;;;7.10;3.12;;;;;;;27.95;30.03;100776.69;1634407;88;21060;-73
2023/09/02 09:14:04;;;;;;;5.22;2.80;;;;;;;27.71;29.66;100776.19;1603542;89;21042;-75
2023/09/02 09:16:36;;;;;;;5.65;2.45;;;;;;;27.32;30.04;100772.17;1628598;88;21059;-73
2023/09/02 09:19:05;;;;;;;3.70;2.67;;;;;;;27.02;30.76;100775.31;1619606;88;21065;-73
2023/09/02 09:21:36;;;;;;;5.15;2.40;;;;;;;26.86;31.12;100771.80;1603432;89;21098;-72
2023/09/02 09:24:05;;;;;;;3.83;2.52;;;;;;;26.60;31.52;100768.38;1628579;88;21079;-75
2023/09/02 09:26:34;;;;;;;3.77;2.12;;;;;;;26.60;31.52;100768.38;1618673;88;21078;-72
2023/09/02 09:29:03;;;;;;;3.98;2.37;;;;;;;26.47;31.98;100767.66;1603366;89;21031;-73
2023/09/02 09:31:31;;;;;;;3.95;2.40;;;;;;;26.41;32.42;100772.48;1628686;88;21076;-73
2023/09/02 09:34:01;;;;;;;4.20;2.20;;;;;;;26.43;31.93;100765.16;1634368;86;21061;-74
2023/09/02 09:36:31;;;;;;;3.15;2.10;;;;;;;26.31;32.08;100766.08;1603584;89;21093;-72
2023/09/02 09:39:05;;;;;;;3.33;2.70;;;;;;;26.26;32.15;100763.31;1607062;88;21511;-73
2023/09/02 09:41:35;;;;;;;4.15;2.67;;;;;;;26.28;32.36;100768.06;1634497;87;21073;-74
2023/09/02 09:44:09;;;;;;;3.02;2.40;;;;;;;26.29;32.35;100764.12;1603662;89;21113;-74
2023/09/02 09:46:48;;;;;;;4.30;2.33;;;;;;;26.30;32.27;100762.42;1628643;88;21437;-73
2023/09/02 09:49:28;;;;;;;4.92;2.55;;;;;;;26.36;32.35;100764.09;1643751;85;21514;-74
2023/09/02 09:52:05;;;;;;;5.65;2.80;;;;;;;26.41;32.19;100766.02;1663664;86;21205;-72
2023/09/02 09:54:37;;;;;;;;;;;;;;;26.29;31.85;100764.12;1666143;86;21085;-73
2023/09/02 09:57:08;;;;;;;4.00;2.75;;;;;;;26.09;32.14;100768.77;1672363;86;20497;-74
2023/09/02 09:59:36;;;;;;;4.80;2.65;;;;;;;25.98;32.40;100767.14;1650389;86;21030;-72
2023/09/02 10:02:06;;;;;;;4.65;2.62;;;;;;;25.90;32.55;100774.21;1645958;86;21057;-72
2023/09/02 10:04:35;;;;;;;5.22;2.55;;;;;;;25.81;32.56;100763.88;1635817;88;21137;-73
2023/09/02 10:07:04;;;;;;;5.37;2.42;;;;;;;25.78;32.92;100770.08;1635778;87;21095;-72
2023/09/02 10:09:43;;;;;;;4.25;2.67;;;;;;;25.72;32.95;100771.23;1635776;88;21520;-73
2023/09/02 10:12:15;;;;;;;4.53;2.90;;;;;;;25.70;33.03;100771.53;1635797;88;21091;-71
2023/09/02 10:14:47;;;;;;;4.08;2.37;;;;;;;25.71;32.89;100766.19;1635891;88;21500;-72
2023/09/02 10:17:16;;;;;;;5.28;2.20;;;;;;;25.67;32.81;100769.86;1635779;88;21599;-71
2023/09/02 10:19:46;;;;;;;5.33;2.55;;;;;;;25.64;33.00;100771.81;1612232;88;21151;-71
2023/09/02 10:22:21;;;;;;;3.62;2.42;;;;;;;25.59;33.20;100767.91;1612267;88;21727;-71
2023/09/02 10:25:16;;;;;;;6.87;2.70;;;;;;;25.53;33.02;100777.48;1635899;88;21549;-73
2023/09/02 10:27:49;;;;;;;4.37;2.52;;;;;;;25.47;33.21;100773.58;1635909;88;21043;-71
2023/09/02 10:30:28;;;;;;;4.70;2.47;;;;;;;25.36;32.98;100772.80;1635752;87;21149;-72
2023/09/02 10:33:32;;;;;;;3.98;2.22;;;;;;;25.24;33.26;100775.05;1635757;86;21102;-74
2023/09/02 10:36:03;;;;;;;4.33;2.50;;;;;;;25.18;33.60;100774.80;1635759;86;21085;-72
2023/09/02 10:38:40;;;;;;;3.87;2.33;;;;;;;25.15;34.19;100772.56;1635783;88;21534;-73
2023/09/02 10:41:14;;;;;;;4.47;2.52;;;;;;;25.18;34.21;100774.23;1635690;88;21075;-72
2023/09/02 10:43:45;;;;;;;4.25;2.75;;;;;;;25.22;34.17;100777.30;1636084;87;21071;-72
2023/09/02 10:46:13;;;;;;;5.65;2.50;;;;;;;25.23;34.22;100775.61;1635852;87;21083;-72
2023/09/02 10:48:44;;;;;;;4.15;2.70;;;;;;;25.22;34.39;100773.09;1612051;88;21083;-73
2023/09/02 10:51:13;;;;;;;4.60;2.30;;;;;;;25.15;34.58;100772.56;1661816;85;21692;-69
2023/09/02 10:53:54;;;;;;;4.78;2.55;;;;;;;25.07;34.82;100771.19;1662288;86;21006;-77
2023/09/02 10:56:32;;;;;;;3.00;2.00;;;;;;;25.04;34.54;100768.11;1661877;86;21126;-72
2023/09/02 10:59:03;;;;;;;3.47;2.50;;;;;;;24.99;34.33;100768.13;1662199;86;21509;-71
2023/09/02 11:01:47;;;;;;;6.15;2.52;;;;;;;24.93;34.57;100765.30;1630544;88;21087;-72
2023/09/02 11:04:45;;;;;;;3.85;2.72;;;;;;;24.90;34.90;100764.47;1634517;86;21770;-70
2023/09/02 11:07:25;;;;;;;4.78;2.47;;;;;;;24.93;35.28;100771.47;1603520;89;21150;-73
2023/09/02 11:09:56;;;;;;;4.12;2.33;;;;;;;24.99;35.23;100760.55;1628545;88;21056;-73
2023/09/02 11:12:25;;;;;;;2.75;2.20;;;;;;;25.05;35.26;100762.78;1634554;88;21049;-73
2023/09/02 11:15:13;;;;;;;3.08;2.22;;;;;;;25.08;35.03;100755.20;1603675;89;21066;-74
2023/09/02 11:17:43;;;;;;;2.60;2.35;;;;;;;25.06;34.73;100756.05;1628664;88;21063;-71
2023/09/02 11:20:19;;;;;;;3.47;2.20;;;;;;;25.00;34.25;100749.61;1634513;88;21077;-73
2023/09/02 11:23:09;;;;;;;4.47;3.00;;;;;;;24.99;33.76;100747.09;1603900;89;21014;-72
2023/09/02 11:25:41;;;;;;;4.25;3.05;;;;;;;25.00;33.76;100744.56;1620928;88;21061;-73
2023/09/02 11:28:22;;;;;;;4.08;2.55;;;;;;;25.05;33.89;100745.95;1607182;89;21517;-73
2023/09/02 11:31:04;;;;;;;3.95;2.58;;;;;;;25.10;33.92;100741.73;1603427;88;21086;-72
2023/09/02 11:33:34;;;;;;;4.95;2.87;;;;;;;25.17;33.94;100743.66;1628610;88;21091;-67
2023/09/02 11:36:10;;;;;;;5.90;3.67;;;;;;;25.23;33.60;100738.31;1619860;88;21607;-66
2023/09/02 11:38:40;;;;;;;7.62;4.58;;;;;;;25.24;33.97;100740.83;1603827;89;21078;-67
2023/09/02 11:41:09;;;;;;;11.18;5.17;;;;;;;25.33;33.77;100743.88;1628674;88;21096;-67
2023/09/02 11:43:39;;;;;;;7.05;4.87;;;;;;;25.40;33.53;100745.00;1619515;88;21482;-66